Time;durP1;ratioP1;P1;durP2;ratioP2;P2;SDS_P1;SDS_P2;PMS_P1;PMS_P2;Temp;Humidity;BMP_temperature;BMP_pressure;BME280_temperature;BME280_humidity;BME280_pressure;Samples;Min_cycle;Max_cycle;Signal;HPM_P1;HPM_P2
2023/09/01 00:00:12;;;;;;;113.17;3.37;;;21.20;38.50;;;;;;5050940;28;20543;-72
2023/09/01 00:02:38;;;;;;;110.47;2.90;;;21.30;36.00;;;;;;5044016;28;20186;-72
2023/09/01 00:05:05;;;;;;;109.73;3.00;;;21.40;37.60;;;;;;5052842;28;20421;-71
2023/09/01 00:07:31;;;;;;;109.33;2.60;;;21.30;38.90;;;;;;5053319;28;20519;-72
2023/09/01 00:09:56;;;;;;;109.87;2.60;;;21.40;36.50;;;;;;5054866;28;20431;-71
2023/09/01 00:12:22;;;;;;;109.77;2.87;;;21.30;38.50;;;;;;5054737;28;20603;-73
2023/09/01 00:14:47;;;;;;;109.83;3.13;;;21.20;37.00;;;;;;5048750;28;20190;-73
2023/09/01 00:17:13;;;;;;;109.33;2.60;;;21.30;38.10;;;;;;5051624;28;20214;-71
2023/09/01 00:19:39;;;;;;;109.77;3.00;;;21.40;39.90;;;;;;5054559;28;20202;-71
2023/09/01 00:22:05;;;;;;;111.97;3.07;;;21.50;38.60;;;;;;5055018;28;20920;-71
2023/09/01 00:24:34;;;;;;;109.60;2.90;;;21.40;37.90;;;;;;5054491;28;20803;-72
2023/09/01 00:27:00;;;;;;;109.37;2.73;;;21.50;36.80;;;;;;5050587;28;20195;-70
2023/09/01 00:29:25;;;;;;;110.10;3.40;;;21.40;38.80;;;;;;5051210;28;20498;-71
2023/09/01 00:31:51;;;;;;;109.67;3.07;;;21.40;39.50;;;;;;5053626;28;20770;-71
2023/09/01 00:34:17;;;;;;;109.60;2.83;;;21.40;38.70;;;;;;5051691;28;20229;-72
2023/09/01 00:36:43;;;;;;;109.67;3.10;;;21.40;37.20;;;;;;5044736;28;20585;-73
2023/09/01 00:39:09;;;;;;;109.97;2.90;;;21.50;36.30;;;;;;5048202;28;20176;-73
2023/09/01 00:41:35;;;;;;;109.57;2.80;;;21.70;38.10;;;;;;5038880;28;20495;-74
2023/09/01 00:44:01;;;;;;;109.63;2.97;;;21.40;38.60;;;;;;5044174;28;20191;-72
2023/09/01 00:46:28;;;;;;;109.67;3.20;;;21.30;35.40;;;;;;5054169;28;20460;-74
2023/09/01 00:48:57;;;;;;;109.37;2.80;;;21.40;36.60;;;;;;5045036;28;20478;-73
2023/09/01 00:51:25;;;;;;;109.47;2.93;;;21.40;37.90;;;;;;5040097;28;20507;-74
2023/09/01 00:53:51;;;;;;;111.57;3.67;;;21.90;36.20;;;;;;5045868;28;20431;-74
2023/09/01 00:56:18;;;;;;;109.67;3.17;;;21.90;38.10;;;;;;5051092;28;20809;-74
2023/09/01 00:58:44;;;;;;;109.47;2.90;;;21.60;34.70;;;;;;5046271;28;20438;-73
2023/09/01 01:01:09;;;;;;;108.93;2.63;;;21.60;38.00;;;;;;5034313;28;20465;-73
2023/09/01 01:03:36;;;;;;;109.30;2.97;;;21.70;37.80;;;;;;5053979;28;20723;-73
2023/09/01 01:06:39;;;;;;;109.40;2.90;;;21.30;37.50;;;;;;5045257;28;20381;-74
2023/09/01 01:09:18;;;;;;;109.37;2.90;;;21.40;37.50;;;;;;5046734;28;20510;-73
2023/09/01 01:12:07;;;;;;;110.00;3.70;;;21.60;37.50;;;;;;5048131;28;20443;-73
2023/09/01 01:14:40;;;;;;;109.60;3.23;;;21.40;37.20;;;;;;5049822;28;20422;-73
2023/09/01 01:17:08;;;;;;;124.20;3.67;;;21.50;34.70;;;;;;5048881;28;20513;-73
2023/09/01 01:19:50;;;;;;;109.77;3.23;;;21.50;34.40;;;;;;5045558;28;20457;-73
2023/09/01 01:22:38;;;;;;;109.53;3.23;;;21.90;33.90;;;;;;5046748;28;20430;-73
2023/09/01 01:25:06;;;;;;;109.07;2.77;;;21.90;33.70;;;;;;5041848;28;20431;-73
2023/09/01 01:27:32;;;;;;;109.10;3.10;;;22.20;33.40;;;;;;5047226;28;20466;-73
2023/09/01 01:29:57;;;;;;;108.97;2.77;;;22.00;33.90;;;;;;5045895;28;20871;-74
2023/09/01 01:32:23;;;;;;;108.97;2.83;;;22.00;34.40;;;;;;5047663;28;20193;-73
2023/09/01 01:34:59;;;;;;;109.40;3.20;;;22.00;33.70;;;;;;5046343;28;20206;-73
2023/09/01 01:37:50;;;;;;;109.30;3.13;;;20.80;36.90;;;;;;5044129;28;20181;-73
2023/09/01 01:40:19;;;;;;;109.33;3.30;;;21.00;36.50;;;;;;5049549;28;20450;-73
2023/09/01 01:42:48;;;;;;;109.37;3.27;;;21.60;36.20;;;;;;5045687;28;20458;-72
2023/09/01 01:45:20;;;;;;;108.80;3.00;;;21.50;35.20;;;;;;5044837;28;20498;-74
2023/09/01 01:47:48;;;;;;;108.97;2.97;;;21.80;34.80;;;;;;5048867;28;20476;-73
2023/09/01 01:50:13;;;;;;;108.40;2.70;;;21.60;34.70;;;;;;5046979;28;20929;-73
2023/09/01 01:52:39;;;;;;;108.87;2.87;;;21.90;34.70;;;;;;5049840;28;20445;-73
2023/09/01 01:55:07;;;;;;;108.80;3.00;;;21.00;36.40;;;;;;5048812;28;20641;-73
2023/09/01 01:57:33;;;;;;;109.10;3.47;;;21.00;36.20;;;;;;5044327;28;20188;-73
2023/09/01 01:59:58;;;;;;;109.00;3.00;;;20.90;37.00;;;;;;5048627;28;20482;-74
2023/09/01 02:02:24;;;;;;;108.47;2.70;;;20.60;37.60;;;;;;5045623;28;20433;-73
2023/09/01 02:04:49;;;;;;;108.73;2.93;;;21.00;36.90;;;;;;5046460;28;20671;-73
2023/09/01 02:07:15;;;;;;;108.63;2.87;;;20.60;37.60;;;;;;5047250;28;20345;-72
2023/09/01 02:09:41;;;;;;;108.97;3.10;;;19.70;40.10;;;;;;5048913;28;20201;-73
2023/09/01 02:12:06;;;;;;;108.40;2.70;;;20.30;39.10;;;;;;5047051;28;20240;-73
2023/09/01 02:14:36;;;;;;;108.77;2.97;;;20.70;38.00;;;;;;5044170;28;20290;-73
2023/09/01 02:17:06;;;;;;;108.67;2.97;;;21.00;37.00;;;;;;5043158;28;20176;-73
2023/09/01 02:19:32;;;;;;;108.27;2.60;;;20.90;37.50;;;;;;5043283;28;20933;-73
2023/09/01 02:21:57;;;;;;;108.27;2.50;;;21.60;36.70;;;;;;5022161;28;20464;-73
2023/09/01 02:24:23;;;;;;;108.40;2.90;;;21.40;36.70;;;;;;5046968;28;20303;-73
2023/09/01 02:26:48;;;;;;;108.70;3.10;;;21.30;36.80;;;;;;5050121;28;20219;-74
2023/09/01 02:29:14;;;;;;;108.17;2.93;;;21.60;35.70;;;;;;5036127;28;20190;-73
2023/09/01 02:31:40;;;;;;;108.27;2.67;;;21.20;36.50;;;;;;5052579;28;20248;-72
2023/09/01 02:34:05;;;;;;;108.17;2.60;;;21.20;37.00;;;;;;5053274;28;20169;-73
2023/09/01 02:36:34;;;;;;;109.07;3.27;;;20.80;38.90;;;;;;5047086;28;20184;-73
2023/09/01 02:39:00;;;;;;;108.40;2.80;;;21.20;37.60;;;;;;5050713;28;20190;-75
2023/09/01 02:41:26;;;;;;;108.47;2.90;;;21.50;36.90;;;;;;5044395;28;20456;-72
2023/09/01 02:43:53;;;;;;;109.73;3.07;;;21.60;37.40;;;;;;5052350;28;20426;-74
2023/09/01 02:46:19;;;;;;;108.40;2.83;;;21.60;36.30;;;;;;5052382;28;20520;-74
2023/09/01 02:48:45;;;;;;;108.30;2.80;;;21.90;36.70;;;;;;5052450;28;20417;-74
2023/09/01 02:51:11;;;;;;;108.37;2.83;;;21.60;36.10;;;;;;5042752;28;20439;-73
2023/09/01 02:53:37;;;;;;;108.90;3.13;;;21.80;36.20;;;;;;5052204;28;20181;-73
2023/09/01 02:56:03;;;;;;;108.37;2.80;;;21.70;35.80;;;;;;5049155;28;20261;-73
2023/09/01 02:58:29;;;;;;;108.70;3.10;;;21.30;36.90;;;;;;5045076;28;20781;-73
2023/09/01 03:00:55;;;;;;;108.27;2.90;;;21.40;37.20;;;;;;5049292;28;20552;-73
2023/09/01 03:03:22;;;;;;;108.27;2.77;;;21.50;36.90;;;;;;5046818;28;20202;-72
2023/09/01 03:05:49;;;;;;;108.57;3.03;;;20.90;38.00;;;;;;5046542;28;20213;-73
2023/09/01 03:08:14;;;;;;;108.17;2.50;;;21.00;38.40;;;;;;5047257;28;20593;-74
2023/09/01 03:10:43;;;;;;;108.70;2.93;;;20.90;38.90;;;;;;5046554;28;20447;-73
2023/09/01 03:13:09;;;;;;;109.00;3.33;;;20.90;38.50;;;;;;5046768;28;20204;-73
2023/09/01 03:15:35;;;;;;;108.27;2.77;;;20.90;39.40;;;;;;5040700;28;20916;-73
2023/09/01 03:18:01;;;;;;;108.73;3.10;;;21.20;38.20;;;;;;5051817;28;20198;-72
2023/09/01 03:20:26;;;;;;;108.47;2.83;;;21.40;37.70;;;;;;5051593;28;20809;-74
2023/09/01 03:22:52;;;;;;;108.40;2.77;;;24.00;40.00;;;;;;5045610;28;20186;-74
2023/09/01 03:25:18;;;;;;;108.20;2.63;;;21.40;38.00;;;;;;5051380;28;20180;-73
2023/09/01 03:27:44;;;;;;;108.40;3.03;;;21.50;39.00;;;;;;5041725;28;20299;-73
2023/09/01 03:30:13;;;;;;;108.63;3.07;;;21.30;38.80;;;;;;5045684;28;20509;-73
2023/09/01 03:32:39;;;;;;;108.10;2.53;;;21.40;38.70;;;;;;5047703;28;20204;-72
2023/09/01 03:35:05;;;;;;;108.10;2.67;;;21.30;38.90;;;;;;5048842;28;20871;-73
2023/09/01 03:37:31;;;;;;;108.53;3.03;;;21.30;38.70;;;;;;5034965;28;20713;-72
2023/09/01 03:39:57;;;;;;;108.77;3.17;;;21.40;39.00;;;;;;5051307;28;20438;-72
2023/09/01 03:42:23;;;;;;;108.60;3.07;;;21.00;39.80;;;;;;5048300;28;20431;-74
2023/09/01 03:44:48;;;;;;;108.30;2.80;;;21.00;39.70;;;;;;5046375;28;20719;-73
2023/09/01 03:47:14;;;;;;;108.37;2.77;;;21.50;39.00;;;;;;5048067;28;20283;-73
2023/09/01 03:49:40;;;;;;;108.20;2.60;;;22.10;38.90;;;;;;5051556;28;20261;-73
2023/09/01 03:52:06;;;;;;;108.00;2.57;;;22.10;37.80;;;;;;5051640;28;20502;-73
2023/09/01 03:54:32;;;;;;;108.60;3.07;;;21.90;38.00;;;;;;5051757;28;20182;-74
2023/09/01 03:56:58;;;;;;;108.57;3.00;;;21.90;38.20;;;;;;5051516;28;20169;-72
2023/09/01 03:59:24;;;;;;;108.60;2.97;;;22.10;37.40;;;;;;5051531;28;20429;-74
2023/09/01 04:01:49;;;;;;;108.57;2.97;;;21.70;37.60;;;;;;5068733;22;20234;-77
2023/09/01 04:04:17;;;;;;;108.50;2.87;;;21.90;38.90;;;;;;5050917;28;20179;-78
2023/09/01 04:06:42;;;;;;;108.70;3.13;;;21.70;38.20;;;;;;5050776;28;20206;-76
2023/09/01 04:09:08;;;;;;;108.70;3.27;;;21.40;39.00;;;;;;5051485;28;20415;-78
2023/09/01 04:11:34;;;;;;;108.70;3.10;;;21.50;38.50;;;;;;5044133;28;20203;-76
2023/09/01 04:14:01;;;;;;;108.67;2.90;;;21.50;39.50;;;;;;5051184;28;20469;-76
2023/09/01 04:16:27;;;;;;;108.50;3.00;;;21.20;40.10;;;;;;5050776;28;20412;-77
2023/09/01 04:18:54;;;;;;;108.67;3.10;;;21.50;39.00;;;;;;5051215;28;20418;-76
2023/09/01 04:21:19;;;;;;;108.87;3.23;;;21.20;40.20;;;;;;5051037;28;20323;-76
2023/09/01 04:23:45;;;;;;;108.87;3.13;;;21.20;40.30;;;;;;5045313;28;20525;-76
2023/09/01 04:26:12;;;;;;;108.37;2.97;;;21.90;39.50;;;;;;5050962;28;20203;-77
2023/09/01 04:28:38;;;;;;;108.40;2.90;;;21.70;38.50;;;;;;5050993;28;20187;-76
2023/09/01 04:31:13;;;;;;;109.00;3.10;;;21.20;39.90;;;;;;5050817;28;20918;-76
2023/09/01 04:33:39;;;;;;;108.37;2.80;;;21.30;40.10;;;;;;5048670;28;20967;-75
2023/09/01 04:36:05;;;;;;;108.60;2.90;;;21.00;41.40;;;;;;5045618;28;20510;-76
2023/09/01 04:38:30;;;;;;;108.50;2.90;;;21.00;41.10;;;;;;5050774;28;20212;-76
2023/09/01 04:40:57;;;;;;;108.67;2.90;;;21.50;40.50;;;;;;5050227;28;20269;-77
2023/09/01 04:43:27;;;;;;;113.00;4.00;;;21.80;39.60;;;;;;5042808;28;20193;-76
2023/09/01 04:45:56;;;;;;;108.57;2.97;;;21.70;38.70;;;;;;5049745;28;20428;-76
2023/09/01 04:48:23;;;;;;;108.47;2.80;;;21.40;39.60;;;;;;5043218;28;20423;-76
2023/09/01 04:50:49;;;;;;;111.57;3.17;;;21.50;39.60;;;;;;5046921;28;20447;-76
2023/09/01 04:53:15;;;;;;;108.83;3.00;;;21.30;40.80;;;;;;5042660;28;20435;-78
2023/09/01 04:55:42;;;;;;;109.63;3.30;;;21.50;39.50;;;;;;5032717;28;20427;-76
2023/09/01 04:58:07;;;;;;;109.57;2.63;;;21.80;39.70;;;;;;5044571;28;20454;-76
2023/09/01 05:00:34;;;;;;;108.20;2.60;;;21.80;38.70;;;;;;5053791;28;20483;-76
2023/09/01 05:03:00;;;;;;;108.37;2.67;;;21.80;38.60;;;;;;5046044;28;20188;-76
2023/09/01 05:05:26;;;;;;;108.47;2.80;;;22.00;38.70;;;;;;5053739;28;20407;-76
2023/09/01 05:07:52;;;;;;;108.30;2.70;;;22.10;40.40;;;;;;5053950;28;20484;-77
2023/09/01 05:10:17;;;;;;;108.57;2.80;;;22.30;39.90;;;;;;5053926;28;20193;-76
2023/09/01 05:12:43;;;;;;;108.67;3.17;;;22.10;40.70;;;;;;5053890;28;20169;-76
2023/09/01 05:15:09;;;;;;;108.80;3.00;;;22.00;39.00;;;;;;5052888;28;20169;-76
2023/09/01 05:17:34;;;;;;;108.57;2.80;;;22.10;39.50;;;;;;5042847;28;20549;-76
2023/09/01 05:20:00;;;;;;;114.93;3.63;;;22.00;38.30;;;;;;5051829;28;20427;-76
2023/09/01 05:22:26;;;;;;;108.50;2.93;;;22.10;39.50;;;;;;5045226;28;20191;-78
2023/09/01 05:24:53;;;;;;;109.90;2.80;;;21.70;41.40;;;;;;5047091;28;20215;-78
2023/09/01 05:27:20;;;;;;;108.87;3.07;;;22.00;40.20;;;;;;5045417;28;20509;-76
2023/09/01 05:29:47;;;;;;;108.87;3.00;;;21.50;41.60;;;;;;5044642;28;20432;-78
2023/09/01 05:32:13;;;;;;;109.87;3.47;;;22.00;41.00;;;;;;5032310;28;20736;-76
2023/09/01 05:34:39;;;;;;;108.70;2.80;;;22.80;41.40;;;;;;5041939;28;20577;-76
2023/09/01 05:37:05;;;;;;;108.77;2.83;;;22.50;38.90;;;;;;5042605;28;20924;-77
2023/09/01 05:39:30;;;;;;;108.80;3.00;;;22.40;40.30;;;;;;5044222;28;20511;-77
2023/09/01 05:41:56;;;;;;;108.80;2.90;;;22.30;39.30;;;;;;5047163;28;20236;-76
2023/09/01 05:44:21;;;;;;;109.10;3.30;;;22.40;40.00;;;;;;5049330;28;20216;-76
2023/09/01 05:46:47;;;;;;;109.03;3.23;;;22.10;40.50;;;;;;5048094;28;20258;-76
2023/09/01 05:49:13;;;;;;;110.63;3.70;;;22.50;40.70;;;;;;5042990;28;20180;-76
2023/09/01 05:51:38;;;;;;;109.03;3.17;;;22.00;42.60;;;;;;5032939;28;20215;-76
2023/09/01 05:54:04;;;;;;;108.87;2.83;;;22.10;44.40;;;;;;5047933;28;20192;-76
2023/09/01 05:56:29;;;;;;;108.80;2.83;;;22.30;44.90;;;;;;5047001;28;20195;-76
2023/09/01 05:58:55;;;;;;;108.80;2.77;;;22.30;45.30;;;;;;5046947;28;20189;-76
2023/09/01 06:01:20;;;;;;;109.00;2.97;;;22.40;43.40;;;;;;5051459;28;20236;-76
2023/09/01 06:03:46;;;;;;;109.00;3.00;;;22.20;42.90;;;;;;5050451;28;20186;-76
2023/09/01 06:06:11;;;;;;;109.10;3.17;;;22.30;43.50;;;;;;5043563;28;20685;-76
2023/09/01 06:08:37;;;;;;;108.97;2.90;;;22.00;43.30;;;;;;5041717;28;20193;-76
2023/09/01 06:11:04;;;;;;;109.20;3.20;;;21.70;45.00;;;;;;5043243;28;20201;-76
2023/09/01 06:13:30;;;;;;;109.10;3.07;;;21.40;48.70;;;;;;5042080;28;20190;-76
2023/09/01 06:15:55;;;;;;;108.80;2.70;;;20.50;52.40;;;;;;5045054;28;20424;-75
2023/09/01 06:18:21;;;;;;;109.07;2.90;;;20.40;54.70;;;;;;5052522;28;20178;-76
2023/09/01 06:20:46;;;;;;;109.30;3.10;;;20.90;56.50;;;;;;5047248;28;20208;-76
2023/09/01 06:23:12;;;;;;;109.17;2.80;;;21.30;55.00;;;;;;5047449;28;20239;-76
2023/09/01 06:25:37;;;;;;;109.27;2.87;;;21.80;54.00;;;;;;5046137;28;20194;-75
2023/09/01 06:28:03;;;;;;;109.20;2.70;;;21.80;53.50;;;;;;5047769;28;20215;-76
2023/09/01 06:30:29;;;;;;;109.47;3.23;;;21.90;53.60;;;;;;5046324;28;20541;-76
2023/09/01 06:32:54;;;;;;;109.27;2.80;;;22.00;52.80;;;;;;5048493;28;20192;-75
2023/09/01 06:35:20;;;;;;;109.77;3.13;;;21.90;49.30;;;;;;5048553;28;20181;-77
2023/09/01 06:37:45;;;;;;;109.50;2.90;;;21.60;52.00;;;;;;5050264;28;20222;-77
2023/09/01 06:40:11;;;;;;;109.60;2.97;;;22.00;52.40;;;;;;5047995;28;20227;-75
2023/09/01 06:42:37;;;;;;;109.77;3.17;;;21.90;53.30;;;;;;5049429;28;20195;-76
2023/09/01 06:45:03;;;;;;;109.50;2.90;;;22.00;53.60;;;;;;5050080;28;20186;-76
2023/09/01 06:47:29;;;;;;;109.57;2.90;;;22.00;53.10;;;;;;5048083;28;20214;-75
2023/09/01 06:49:54;;;;;;;109.87;3.07;;;22.30;54.30;;;;;;5052421;28;20411;-76
2023/09/01 06:52:20;;;;;;;110.07;2.97;;;22.00;51.60;;;;;;5052091;28;20226;-78
2023/09/01 06:54:46;;;;;;;110.50;3.27;;;22.00;53.50;;;;;;5051777;28;20220;-75
2023/09/01 06:57:12;;;;;;;110.00;3.00;;;22.20;53.50;;;;;;5052096;28;20176;-77
2023/09/01 06:59:37;;;;;;;109.97;3.17;;;22.20;54.10;;;;;;5051975;28;20436;-76
2023/09/01 07:02:03;;;;;;;110.10;3.17;;;22.40;52.10;;;;;;5052003;28;20303;-76
2023/09/01 07:04:29;;;;;;;109.93;2.87;;;22.30;52.00;;;;;;5051633;28;20186;-75
2023/09/01 07:06:54;;;;;;;110.07;2.80;;;22.40;50.70;;;;;;5033965;28;20204;-77
2023/09/01 07:09:20;;;;;;;109.97;2.97;;;22.40;51.20;;;;;;5052100;28;20179;-78
2023/09/01 07:11:45;;;;;;;110.10;2.93;;;22.40;52.80;;;;;;5048342;28;20209;-75
2023/09/01 07:14:11;;;;;;;110.20;3.10;;;22.40;53.50;;;;;;5047062;28;20193;-76
2023/09/01 07:16:36;;;;;;;110.37;2.93;;;22.40;53.70;;;;;;5041429;28;20545;-76
2023/09/01 07:19:02;;;;;;;110.57;2.97;;;22.40;53.10;;;;;;5051409;28;20215;-76
2023/09/01 07:21:27;;;;;;;110.17;2.83;;;22.50;53.00;;;;;;5051315;28;20228;-76
2023/09/01 07:23:53;;;;;;;110.17;2.97;;;22.70;54.00;;;;;;5051487;28;20173;-76
2023/09/01 07:26:19;;;;;;;110.57;3.33;;;22.60;53.30;;;;;;5051179;28;20283;-77
2023/09/01 07:28:44;;;;;;;110.53;3.40;;;22.70;53.70;;;;;;5049863;28;20174;-75
2023/09/01 07:31:13;;;;;;;110.47;3.20;;;23.60;50.50;;;;;;5044133;28;20204;-76
2023/09/01 07:33:41;;;;;;;110.60;3.40;;;22.40;52.30;;;;;;5026765;28;20603;-75
2023/09/01 07:36:10;;;;;;;110.20;2.93;;;22.50;50.70;;;;;;5051009;28;20450;-77
2023/09/01 07:38:36;;;;;;;110.23;3.00;;;22.60;50.50;;;;;;5051243;28;20424;-76
2023/09/01 07:41:03;;;;;;;110.20;3.00;;;22.60;51.40;;;;;;5051624;28;20471;-76
2023/09/01 07:43:29;;;;;;;110.50;3.10;;;22.80;51.60;;;;;;5051289;28;20418;-76
2023/09/01 07:45:54;;;;;;;110.67;3.20;;;22.40;51.20;;;;;;5050990;28;20464;-76
2023/09/01 07:48:20;;;;;;;110.70;3.30;;;22.90;51.50;;;;;;5051314;28;20174;-76
2023/09/01 07:50:46;;;;;;;110.40;3.07;;;23.10;48.00;;;;;;5051180;28;20293;-76
2023/09/01 07:53:11;;;;;;;110.40;3.00;;;23.00;49.10;;;;;;5049420;28;20184;-76
2023/09/01 07:55:37;;;;;;;110.40;2.90;;;22.90;48.60;;;;;;5043500;28;20431;-76
2023/09/01 07:58:03;;;;;;;110.47;2.87;;;23.10;48.10;;;;;;5045096;28;20212;-76
2023/09/01 08:00:29;;;;;;;110.57;3.33;;;23.50;50.80;;;;;;5047414;28;20274;-76
2023/09/01 08:02:55;;;;;;;110.67;3.13;;;23.20;51.40;;;;;;5048761;28;20189;-76
2023/09/01 08:05:22;;;;;;;110.47;2.97;;;23.40;50.40;;;;;;5050572;28;20175;-76
2023/09/01 08:07:49;;;;;;;110.30;2.70;;;23.50;51.90;;;;;;5051158;28;20579;-76
2023/09/01 08:10:15;;;;;;;110.60;3.13;;;22.70;49.30;;;;;;5050936;28;20405;-76
2023/09/01 08:12:41;;;;;;;111.07;3.10;;;22.70;50.50;;;;;;5051096;28;20492;-75
2023/09/01 08:15:08;;;;;;;110.30;2.80;;;22.90;49.30;;;;;;5050678;28;20494;-75
2023/09/01 08:17:34;;;;;;;110.50;2.93;;;22.60;52.30;;;;;;5051040;28;20172;-76
2023/09/01 08:20:01;;;;;;;110.73;3.20;;;22.90;50.40;;;;;;5050860;28;20404;-76
2023/09/01 08:22:26;;;;;;;110.30;2.93;;;22.90;48.70;;;;;;5051061;28;20966;-76
2023/09/01 08:24:52;;;;;;;110.53;3.07;;;22.40;50.60;;;;;;5047827;28;20434;-76
2023/09/01 08:27:17;;;;;;;110.83;3.40;;;22.50;53.80;;;;;;5049216;28;20636;-75
2023/09/01 08:29:43;;;;;;;110.27;2.80;;;23.10;53.40;;;;;;5050080;28;20592;-76
2023/09/01 08:32:10;;;;;;;110.40;3.00;;;23.70;52.00;;;;;;5054507;28;20254;-76
2023/09/01 08:34:35;;;;;;;110.30;2.90;;;24.00;45.80;;;;;;5054248;28;20258;-76
2023/09/01 08:37:01;;;;;;;109.93;2.60;;;24.20;46.10;;;;;;5050095;28;20513;-76
2023/09/01 08:39:26;;;;;;;111.83;3.70;;;24.40;45.80;;;;;;5041938;28;20217;-77
2023/09/01 08:41:53;;;;;;;110.17;2.73;;;24.60;46.80;;;;;;5044669;28;20215;-76
2023/09/01 08:44:23;;;;;;;110.57;3.17;;;24.00;45.90;;;;;;5046139;28;20232;-77
2023/09/01 08:46:53;;;;;;;110.47;2.83;;;23.20;49.00;;;;;;5045091;28;20459;-75
2023/09/01 08:49:19;;;;;;;110.17;2.80;;;23.10;51.70;;;;;;5042682;28;20827;-75
2023/09/01 08:51:49;;;;;;;110.37;3.00;;;22.40;52.10;;;;;;5040567;28;20449;-76
2023/09/01 08:54:18;;;;;;;110.00;2.80;;;22.60;53.10;;;;;;5046143;28;20943;-78
2023/09/01 08:56:44;;;;;;;110.17;3.00;;;22.40;52.10;;;;;;5051661;28;20521;-75
2023/09/01 08:59:10;;;;;;;110.57;3.00;;;22.40;55.60;;;;;;5054072;28;20494;-78
2023/09/01 09:01:37;;;;;;;110.30;3.00;;;23.20;52.50;;;;;;5053779;28;20214;-75
2023/09/01 09:04:06;;;;;;;110.47;3.00;;;23.00;53.90;;;;;;5047259;28;20206;-75
2023/09/01 09:06:34;;;;;;;110.37;3.23;;;23.10;51.50;;;;;;5048684;28;20467;-76
2023/09/01 09:09:12;;;;;;;110.20;2.90;;;23.50;46.90;;;;;;5048394;28;20852;-75
2023/09/01 09:11:38;;;;;;;110.57;2.97;;;23.10;50.00;;;;;;5049680;28;20792;-76
2023/09/01 09:14:04;;;;;;;110.40;3.20;;;22.90;51.20;;;;;;5042834;28;20416;-77
2023/09/01 09:16:30;;;;;;;110.07;2.90;;;22.50;51.90;;;;;;5046399;28;20427;-75
2023/09/01 09:18:56;;;;;;;110.10;2.90;;;22.20;55.30;;;;;;5043043;28;20431;-76
2023/09/01 09:21:29;;;;;;;109.97;2.93;;;22.90;52.70;;;;;;5051512;28;20201;-77
2023/09/01 09:23:57;;;;;;;110.47;3.20;;;22.90;49.10;;;;;;5047464;28;20313;-76
2023/09/01 09:26:27;;;;;;;111.10;3.93;;;22.50;51.60;;;;;;5046772;28;20458;-76
2023/09/01 09:28:53;;;;;;;109.80;2.70;;;22.40;52.30;;;;;;5045556;28;20796;-76
2023/09/01 09:31:35;;;;;;;109.73;2.90;;;22.40;54.50;;;;;;5044852;28;20442;-75
2023/09/01 09:34:15;;;;;;;110.37;3.37;;;23.20;50.10;;;;;;5040632;28;20511;-76
2023/09/01 09:36:41;;;;;;;109.53;2.73;;;22.80;48.50;;;;;;5044504;28;20969;-76
2023/09/01 09:39:21;;;;;;;109.77;3.13;;;23.80;47.60;;;;;;5048935;28;20427;-76
2023/09/01 09:41:46;;;;;;;110.10;3.27;;;23.80;46.00;;;;;;5053225;28;20437;-76
2023/09/01 09:44:20;;;;;;;110.50;3.27;;;23.60;45.00;;;;;;5053383;28;20410;-77
2023/09/01 09:46:46;;;;;;;109.97;2.80;;;24.30;44.60;;;;;;5046023;28;20720;-76
2023/09/01 09:49:15;;;;;;;109.97;3.13;;;24.10;42.40;;;;;;5044358;28;20451;-75
2023/09/01 09:51:42;;;;;;;109.80;3.10;;;23.60;43.40;;;;;;5047124;28;20204;-77
2023/09/01 09:54:10;;;;;;;109.73;3.03;;;23.30;44.70;;;;;;5047958;28;20421;-76
2023/09/01 09:56:38;;;;;;;109.70;3.23;;;23.80;42.70;;;;;;5046459;28;20433;-76
2023/09/01 09:59:05;;;;;;;110.10;3.00;;;24.30;42.20;;;;;;5048041;28;20457;-76
2023/09/01 10:01:34;;;;;;;112.40;4.50;;;25.00;40.80;;;;;;5046618;28;20572;-78
2023/09/01 10:04:07;;;;;;;109.17;2.70;;;25.50;38.50;;;;;;5053029;28;20414;-76
2023/09/01 10:06:34;;;;;;;109.23;3.03;;;24.80;37.50;;;;;;5052569;28;20463;-78
2023/09/01 10:09:04;;;;;;;109.17;2.77;;;23.80;41.50;;;;;;5053189;28;20442;-76
2023/09/01 10:11:30;;;;;;;109.00;2.83;;;24.30;37.70;;;;;;5052706;28;20841;-76
2023/09/01 10:13:57;;;;;;;109.97;3.30;;;24.30;38.00;;;;;;5053461;28;20811;-76
2023/09/01 10:16:23;;;;;;;108.77;2.70;;;24.00;40.70;;;;;;5052461;28;20413;-76
2023/09/01 10:18:49;;;;;;;109.10;3.00;;;24.10;39.20;;;;;;5052735;28;20406;-76
2023/09/01 10:21:20;;;;;;;108.80;2.83;;;24.10;38.40;;;;;;5048700;28;20549;-76
2023/09/01 10:23:46;;;;;;;109.00;3.10;;;24.10;38.30;;;;;;5052553;28;20422;-75
2023/09/01 10:26:15;;;;;;;108.57;3.00;;;24.30;37.30;;;;;;5050737;28;20475;-76
2023/09/01 10:29:00;;;;;;;108.40;3.00;;;24.40;38.60;;;;;;5049534;28;20418;-77
2023/09/01 10:31:27;;;;;;;108.13;2.90;;;25.10;38.20;;;;;;5047747;28;20436;-76
2023/09/01 10:34:15;;;;;;;107.90;2.60;;;24.90;37.30;;;;;;5049991;28;20418;-76
2023/09/01 10:36:45;;;;;;;108.47;3.03;;;25.50;36.60;;;;;;5051234;28;20428;-76
2023/09/01 10:39:16;;;;;;;108.10;2.70;;;25.50;34.90;;;;;;5052396;28;20517;-76
2023/09/01 10:41:59;;;;;;;108.17;3.17;;;25.70;34.90;;;;;;5052202;28;20418;-76
2023/09/01 10:44:47;;;;;;;108.07;2.83;;;25.90;34.60;;;;;;5052291;28;20483;-80
2023/09/01 10:47:41;;;;;;;107.67;2.63;;;25.40;34.10;;;;;;5051348;28;20450;-76
2023/09/01 10:50:06;;;;;;;107.60;2.60;;;25.70;33.70;;;;;;5052221;28;20402;-76
2023/09/01 10:52:32;;;;;;;107.37;2.60;;;25.50;33.80;;;;;;5052044;28;20975;-76
2023/09/01 10:55:05;;;;;;;108.00;2.90;;;25.20;37.00;;;;;;5051879;28;20164;-77
2023/09/01 10:57:50;;;;;;;107.50;2.70;;;25.10;36.00;;;;;;5052038;28;20248;-77
2023/09/01 11:00:29;;;;;;;109.00;3.00;;;25.30;37.90;;;;;;5051865;28;20406;-76
2023/09/01 11:03:30;;;;;;;107.70;2.80;;;25.60;35.00;;;;;;5051963;28;20406;-76
2023/09/01 11:06:05;;;;;;;108.57;3.20;;;25.10;36.90;;;;;;5051586;28;20398;-77
2023/09/01 11:08:32;;;;;;;107.57;2.80;;;24.90;35.90;;;;;;5052222;28;20409;-76
2023/09/01 11:11:10;;;;;;;108.40;2.93;;;25.30;35.80;;;;;;5051666;28;20426;-76
2023/09/01 11:13:36;;;;;;;107.67;3.17;;;25.70;34.30;;;;;;5047563;28;20471;-76
2023/09/01 11:16:09;;;;;;;107.40;2.80;;;25.70;34.40;;;;;;5044882;28;20410;-77
2023/09/01 11:18:34;;;;;;;107.67;2.93;;;25.70;34.30;;;;;;5051689;28;20544;-76
2023/09/01 11:21:00;;;;;;;108.10;3.30;;;26.00;33.60;;;;;;5051721;28;20505;-76
2023/09/01 11:23:29;;;;;;;107.37;2.67;;;25.90;33.60;;;;;;5033631;28;20635;-76
2023/09/01 11:25:56;;;;;;;107.27;2.60;;;26.10;34.30;;;;;;5051373;28;20765;-76
2023/09/01 11:28:22;;;;;;;107.40;2.73;;;26.70;32.80;;;;;;5051625;28;20417;-76
2023/09/01 11:30:55;;;;;;;107.00;2.50;;;26.90;31.90;;;;;;5051748;28;20438;-76
2023/09/01 11:33:23;;;;;;;107.27;2.70;;;26.30;33.10;;;;;;5033721;28;20457;-77
2023/09/01 11:35:49;;;;;;;107.70;3.00;;;25.90;34.80;;;;;;5033415;28;20430;-78
2023/09/01 11:38:19;;;;;;;106.97;2.63;;;26.00;32.40;;;;;;5051591;28;20410;-78
2023/09/01 11:40:50;;;;;;;107.10;2.70;;;26.40;32.40;;;;;;5051730;28;20434;-77
2023/09/01 11:43:16;;;;;;;106.90;2.80;;;26.10;32.20;;;;;;5051907;28;20410;-77
2023/09/01 11:45:48;;;;;;;106.70;2.87;;;26.20;31.60;;;;;;5045327;28;20427;-76
2023/09/01 11:48:24;;;;;;;106.60;2.40;;;26.30;33.00;;;;;;5035049;28;20199;-76
2023/09/01 11:50:51;;;;;;;106.60;2.40;;;26.10;33.00;;;;;;5051664;28;20512;-76
2023/09/01 11:53:32;;;;;;;106.70;2.50;;;25.10;34.70;;;;;;5051406;28;20477;-76
2023/09/01 11:55:58;;;;;;;106.67;2.67;;;24.40;36.80;;;;;;5051572;28;20395;-76
2023/09/01 11:58:33;;;;;;;106.87;2.90;;;24.90;35.60;;;;;;5053132;28;20771;-76
2023/09/01 12:01:15;;;;;;;106.67;2.70;;;23.90;38.20;;;;;;5055424;28;20495;-76
2023/09/01 12:03:45;;;;;;;107.20;2.80;;;23.80;38.50;;;;;;5055401;28;20414;-75
2023/09/01 12:06:18;;;;;;;107.00;2.80;;;23.50;38.90;;;;;;5053159;28;20788;-76
2023/09/01 12:08:45;;;;;;;106.90;2.80;;;23.50;39.90;;;;;;5044137;28;20427;-76
2023/09/01 12:11:12;;;;;;;106.67;2.50;;;24.10;37.80;;;;;;5047333;28;20873;-76
2023/09/01 12:13:38;;;;;;;106.50;2.60;;;24.70;36.90;;;;;;5043439;28;20967;-76
2023/09/01 12:16:04;;;;;;;107.47;2.60;;;25.00;36.20;;;;;;5045983;28;20414;-77
2023/09/01 12:18:38;;;;;;;106.10;2.30;;;25.30;34.10;;;;;;5047349;28;20180;-76
2023/09/01 12:21:06;;;;;;;106.27;2.60;;;25.50;34.20;;;;;;5047238;28;20440;-77
2023/09/01 12:23:34;;;;;;;106.37;2.37;;;24.60;35.20;;;;;;5044866;28;20746;-75
2023/09/01 12:26:01;;;;;;;106.80;2.80;;;24.50;36.00;;;;;;5044080;28;20936;-76
2023/09/01 12:28:27;;;;;;;106.30;2.53;;;24.60;36.50;;;;;;5048200;28;20413;-76
2023/09/01 12:30:54;;;;;;;106.40;2.70;;;25.30;34.50;;;;;;5047202;28;20439;-76